createdAt,value
2019-04-07T00:01:52.683Z,28.67
2019-04-07T00:04:25.522Z,33.20
2019-04-07T00:06:56.620Z,28.37
2019-04-07T00:09:27.732Z,28.77
2019-04-07T00:11:59.178Z,31.27
2019-04-07T00:14:28.189Z,27.03
2019-04-07T00:16:57.233Z,27.10
2019-04-07T00:19:25.935Z,30.57
2019-04-07T00:21:54.562Z,28.90
2019-04-07T00:24:23.187Z,29.17
2019-04-07T00:26:52.453Z,28.80
2019-04-07T00:29:21.536Z,28.70
2019-04-07T00:31:50.169Z,29.70
2019-04-07T00:34:19.194Z,27.80
2019-04-07T00:36:48.058Z,27.33
2019-04-07T00:39:16.937Z,30.00
2019-04-07T00:41:45.665Z,31.10
2019-04-07T00:44:14.676Z,30.83
2019-04-07T00:46:43.516Z,32.07
2019-04-07T00:49:13.120Z,30.63
2019-04-07T00:51:42.147Z,29.80
2019-04-07T00:54:11.467Z,31.50
2019-04-07T00:56:40.181Z,27.07
2019-04-07T00:59:08.864Z,28.67
2019-04-07T01:01:37.474Z,29.90
2019-04-07T01:04:06.186Z,33.23
2019-04-07T01:06:36.189Z,30.77
2019-04-07T01:09:06.961Z,30.23
2019-04-07T01:11:36.301Z,29.80
2019-04-07T01:14:06.006Z,30.20
2019-04-07T01:16:35.263Z,30.20
2019-04-07T01:19:04.583Z,29.83
2019-04-07T01:21:33.453Z,29.13
2019-04-07T01:24:02.336Z,31.13
2019-04-07T01:26:31.822Z,26.47
2019-04-07T01:29:00.517Z,32.50
2019-04-07T01:31:29.810Z,29.47
2019-04-07T01:33:58.741Z,27.90
2019-04-07T01:36:27.983Z,25.73
2019-04-07T01:38:56.686Z,29.03
2019-04-07T01:41:34.072Z,30.17
2019-04-07T01:44:08.020Z,26.00
2019-04-07T01:46:46.071Z,27.53
2019-04-07T01:49:21.154Z,30.10
2019-04-07T01:52:07.223Z,35.47
2019-04-07T01:54:53.849Z,30.63
2019-04-07T01:57:53.532Z,32.87
2019-04-07T02:00:33.803Z,32.73
2019-04-07T02:03:12.421Z,32.70
2019-04-07T02:06:02.002Z,29.13
2019-04-07T02:08:54.069Z,31.60
2019-04-07T02:11:29.391Z,29.33
2019-04-07T02:14:07.027Z,29.13
2019-04-07T02:16:43.461Z,30.73
2019-04-07T02:19:28.267Z,28.17
2019-04-07T02:22:15.928Z,31.60
2019-04-07T02:24:49.873Z,34.17
2019-04-07T02:27:33.426Z,30.30
2019-04-07T02:30:23.856Z,29.03
2019-04-07T02:33:12.487Z,31.60
2019-04-07T02:36:25.524Z,31.60
2019-04-07T02:39:04.516Z,32.13
2019-04-07T02:41:40.295Z,28.73
2019-04-07T02:44:22.856Z,28.77
2019-04-07T02:47:08.587Z,31.13
2019-04-07T02:49:56.571Z,29.47
2019-04-07T02:52:43.186Z,38.90
2019-04-07T02:55:30.886Z,44.87
2019-04-07T02:58:21.636Z,37.40
2019-04-07T03:01:12.149Z,40.80
2019-04-07T03:04:05.994Z,38.97
2019-04-07T03:06:53.654Z,38.27
2019-04-07T03:09:54.662Z,36.70
2019-04-07T03:12:51.390Z,37.70
2019-04-07T03:15:46.191Z,32.40
2019-04-07T03:18:34.420Z,30.10
2019-04-07T03:21:10.523Z,29.60
2019-04-07T03:24:06.560Z,28.37
2019-04-07T03:26:55.592Z,28.27
2019-04-07T03:29:43.041Z,32.30
2019-04-07T03:32:30.460Z,28.17
2019-04-07T03:35:26.575Z,30.33
2019-04-07T03:38:17.056Z,28.90
2019-04-07T03:41:05.368Z,31.00
2019-04-07T03:43:56.991Z,27.80
2019-04-07T03:46:34.767Z,29.70
2019-04-07T03:49:14.900Z,31.13
2019-04-07T03:51:49.865Z,29.13
2019-04-07T03:54:48.309Z,24.90
2019-04-07T03:57:36.489Z,25.20
2019-04-07T04:00:18.702Z,28.27
2019-04-07T04:03:09.479Z,26.73
2019-04-07T04:05:57.366Z,28.43
2019-04-07T04:08:35.309Z,25.10
2019-04-07T04:11:10.151Z,27.20
2019-04-07T04:13:46.172Z,26.13
2019-04-07T04:16:18.393Z,25.03
2019-04-07T04:18:47.086Z,26.67
2019-04-07T04:21:16.411Z,27.77
2019-04-07T04:23:45.749Z,27.73
2019-04-07T04:26:15.135Z,27.87
2019-04-07T04:28:44.259Z,27.10
2019-04-07T04:31:13.124Z,23.50
2019-04-07T04:33:42.725Z,25.00
2019-04-07T04:36:11.376Z,25.20
2019-04-07T04:38:40.489Z,26.60
2019-04-07T04:41:09.999Z,29.13
2019-04-07T04:43:39.306Z,25.13
2019-04-07T04:46:10.896Z,26.57
2019-04-07T04:48:38.860Z,26.53
2019-04-07T04:51:08.506Z,27.50
2019-04-07T04:53:38.160Z,24.23
2019-04-07T04:56:07.621Z,30.70
2019-04-07T04:58:36.294Z,24.70
2019-04-07T05:01:05.013Z,27.90
2019-04-07T05:03:33.869Z,25.60
2019-04-07T05:06:02.568Z,26.80
2019-04-07T05:08:31.290Z,27.73
2019-04-07T05:11:00.038Z,32.03
2019-04-07T05:13:28.878Z,28.33
2019-04-07T05:15:57.723Z,28.50
2019-04-07T05:18:26.864Z,25.43
2019-04-07T05:20:56.318Z,25.37
2019-04-07T05:23:25.184Z,27.87
2019-04-07T05:25:54.381Z,27.93
2019-04-07T05:28:23.125Z,26.00
2019-04-07T05:30:51.882Z,25.47
2019-04-07T05:33:21.110Z,25.07
2019-04-07T05:35:50.437Z,26.13
2019-04-07T05:38:19.236Z,21.90
2019-04-07T05:40:47.853Z,24.60
2019-04-07T05:43:16.488Z,22.27
2019-04-07T05:45:46.391Z,24.23
2019-04-07T05:48:19.302Z,26.07
2019-04-07T05:50:46.094Z,24.90
2019-04-07T05:53:15.063Z,25.77
2019-04-07T05:55:43.763Z,21.60
2019-04-07T05:58:15.447Z,25.23
2019-04-07T06:00:48.704Z,23.40
2019-04-07T06:03:20.522Z,23.13
2019-04-07T06:05:51.071Z,22.23
2019-04-07T06:08:30.281Z,22.57
2019-04-07T06:11:00.178Z,22.03
2019-04-07T06:13:32.934Z,20.47
2019-04-07T06:16:05.640Z,20.13
2019-04-07T06:18:34.764Z,19.23
2019-04-07T06:21:17.332Z,20.53
2019-04-07T06:23:50.727Z,21.90
2019-04-07T06:26:22.208Z,21.97
2019-04-07T06:28:54.633Z,20.50
2019-04-07T06:31:27.103Z,18.37
2019-04-07T06:34:04.178Z,19.60
2019-04-07T06:36:51.632Z,19.93
2019-04-07T06:39:19.933Z,23.37
2019-04-07T06:41:53.443Z,24.60
2019-04-07T06:44:30.120Z,26.30
2019-04-07T06:47:30.752Z,19.43
2019-04-07T06:50:17.894Z,20.77
2019-04-07T06:53:10.621Z,19.33
2019-04-07T06:56:06.050Z,19.93
2019-04-07T06:59:05.948Z,20.27
2019-04-07T07:02:14.465Z,17.67
2019-04-07T07:05:08.421Z,19.00
2019-04-07T07:08:10.037Z,18.23
2019-04-07T07:10:56.290Z,17.90
2019-04-07T07:13:41.419Z,17.53
2019-04-07T07:16:35.013Z,18.60
2019-04-07T07:19:40.146Z,18.50
2019-04-07T07:22:28.448Z,20.30
2019-04-07T07:25:01.311Z,27.47
2019-04-07T07:27:40.378Z,18.27
2019-04-07T07:30:12.174Z,11.43
2019-04-07T07:32:44.111Z,11.30
2019-04-07T07:35:15.292Z,10.80
2019-04-07T07:37:58.136Z,9.90
2019-04-07T07:40:31.311Z,10.63
2019-04-07T07:43:14.572Z,10.27
2019-04-07T07:45:48.316Z,12.50
2019-04-07T07:48:20.808Z,10.33
2019-04-07T07:51:12.569Z,10.23
2019-04-07T07:53:39.493Z,8.80
2019-04-07T07:56:12.391Z,9.73
2019-04-07T07:58:50.448Z,8.83
2019-04-07T08:01:23.513Z,8.27
2019-04-07T08:03:55.872Z,8.23
2019-04-07T08:06:25.041Z,9.63
2019-04-07T08:09:01.154Z,9.63
2019-04-07T08:11:24.249Z,8.80
2019-04-07T08:13:53.610Z,10.60
2019-04-07T08:16:22.271Z,10.67
2019-04-07T08:18:51.074Z,7.87
2019-04-07T08:21:20.860Z,7.53
2019-04-07T08:23:49.572Z,8.20
2019-04-07T08:26:25.193Z,7.40
2019-04-07T08:28:54.825Z,8.57
2019-04-07T08:31:25.668Z,6.87
2019-04-07T08:33:59.681Z,8.57
2019-04-07T08:36:27.829Z,7.60
2019-04-07T08:38:57.143Z,6.93
2019-04-07T08:41:26.738Z,8.10
2019-04-07T08:44:17.210Z,8.10
2019-04-07T08:47:10.809Z,7.67
2019-04-07T08:49:38.103Z,10.03
2019-04-07T08:52:12.051Z,7.67
2019-04-07T08:54:44.193Z,10.17
2019-04-07T08:57:21.379Z,7.73
2019-04-07T08:59:53.885Z,8.27
2019-04-07T09:02:26.886Z,7.87
2019-04-07T09:04:53.081Z,8.17
2019-04-07T09:07:24.302Z,8.10
2019-04-07T09:10:20.698Z,10.83
2019-04-07T09:12:50.998Z,8.90
2019-04-07T09:15:29.757Z,8.60
2019-04-07T09:18:05.483Z,8.53
2019-04-07T09:20:48.471Z,7.60
2019-04-07T09:23:34.417Z,6.50
2019-04-07T09:26:20.719Z,6.30
2019-04-07T09:28:59.220Z,6.60
2019-04-07T09:32:02.794Z,8.43
2019-04-07T09:35:16.607Z,9.07
2019-04-07T09:38:21.638Z,8.03
2019-04-07T09:45:12.793Z,6.00
2019-04-07T09:48:02.130Z,7.53
2019-04-07T09:50:37.597Z,6.00
2019-04-07T09:53:21.491Z,5.87
2019-04-07T09:56:42.887Z,5.90
2019-04-07T09:59:37.542Z,10.43
2019-04-07T10:02:37.241Z,5.20
2019-04-07T10:08:55.636Z,5.50
2019-04-07T10:11:39.128Z,4.10
2019-04-07T10:14:37.632Z,5.30
2019-04-07T10:17:27.724Z,4.83
2019-04-07T10:23:48.734Z,4.50
2019-04-07T10:30:15.699Z,3.33
2019-04-07T11:15:45.140Z,2.00
2019-04-07T11:44:48.896Z,2.37
2019-04-07T11:51:19.527Z,2.30
2019-04-07T11:58:15.092Z,2.30
2019-04-07T12:01:22.920Z,2.17
2019-04-07T12:04:30.663Z,2.17
2019-04-07T12:08:31.144Z,1.50
2019-04-07T13:35:28.081Z,2.10
2019-04-07T13:38:22.014Z,2.27
2019-04-07T13:41:21.777Z,2.27
2019-04-07T13:44:08.844Z,2.00
2019-04-07T13:46:49.415Z,2.23
2019-04-07T13:49:27.838Z,2.07
2019-04-07T13:52:18.402Z,1.93
2019-04-07T13:54:52.591Z,1.77
2019-04-07T13:57:42.935Z,3.27
2019-04-07T14:00:37.121Z,1.50
2019-04-07T14:03:43.719Z,1.33
2019-04-07T14:06:17.509Z,1.97
2019-04-07T14:09:04.401Z,2.20
2019-04-07T14:12:08.278Z,4.30
2019-04-07T14:14:54.987Z,2.10
2019-04-07T14:18:05.794Z,1.47
2019-04-07T14:21:18.133Z,2.40
2019-04-07T14:24:23.795Z,2.07
2019-04-07T14:27:22.077Z,1.43
2019-04-07T14:30:04.661Z,1.90
2019-04-07T14:33:00.140Z,2.10
2019-04-07T14:36:08.917Z,1.50
2019-04-07T14:39:00.314Z,1.60
2019-04-07T14:42:01.026Z,1.60
2019-04-07T14:45:07.805Z,1.80
2019-04-07T14:47:54.607Z,1.87
2019-04-07T14:50:57.150Z,1.63
2019-04-07T14:54:15.301Z,2.37
2019-04-07T14:57:09.362Z,1.70
2019-04-07T15:00:02.129Z,3.13
2019-04-07T15:17:26.398Z,2.47
2019-04-07T15:47:00.502Z,3.57
2019-04-07T15:49:29.521Z,2.67
2019-04-07T15:51:59.334Z,2.20
2019-04-07T15:54:28.603Z,2.30
2019-04-07T15:56:58.780Z,1.50
2019-04-07T15:59:29.788Z,1.30
2019-04-07T16:01:58.510Z,1.20
2019-04-07T16:04:29.315Z,2.23
2019-04-07T16:06:57.883Z,1.60
2019-04-07T16:09:34.630Z,1.70
2019-04-07T16:11:59.077Z,1.73
2019-04-07T16:14:27.617Z,1.87
2019-04-07T16:16:59.539Z,4.60
2019-04-07T16:19:37.406Z,1.40
2019-04-07T16:21:57.356Z,1.60
2019-04-07T16:24:26.899Z,1.40
2019-04-07T16:26:56.186Z,2.50
2019-04-07T16:29:24.879Z,1.30
2019-04-07T16:31:55.772Z,1.00
2019-04-07T16:34:23.920Z,2.80
2019-04-07T16:36:55.136Z,2.43
2019-04-07T16:39:23.120Z,1.40
2019-04-07T16:41:51.674Z,1.50
2019-04-07T16:44:20.416Z,1.87
2019-04-07T16:46:49.039Z,1.50
2019-04-07T16:49:19.002Z,3.73
2019-04-07T16:51:49.522Z,1.63
2019-04-07T16:54:24.492Z,1.60
2019-04-07T16:56:56.952Z,1.27
2019-04-07T17:03:17.304Z,1.80
2019-04-07T17:05:48.028Z,1.57
2019-04-07T17:08:24.957Z,1.83
2019-04-07T17:11:21.366Z,1.50
2019-04-07T17:13:53.642Z,1.57
2019-04-07T17:16:52.177Z,1.37
2019-04-07T17:19:29.211Z,2.27
2019-04-07T17:22:01.823Z,1.80
2019-04-07T17:24:44.177Z,1.53
2019-04-07T17:27:27.001Z,1.57
2019-04-07T17:29:58.449Z,2.33
2019-04-07T17:32:40.371Z,2.30
2019-04-07T17:35:15.254Z,1.20
2019-04-07T17:40:58.010Z,1.50
2019-04-07T17:44:00.853Z,3.53
2019-04-07T17:47:05.826Z,2.20
2019-04-07T17:49:56.667Z,2.67
2019-04-07T17:52:41.247Z,2.10
2019-04-07T17:55:29.956Z,3.50
2019-04-07T17:58:12.639Z,2.37
2019-04-07T18:00:56.802Z,1.93
2019-04-07T18:03:57.073Z,3.77
2019-04-07T18:06:42.896Z,2.53
2019-04-07T18:09:51.353Z,2.20
2019-04-07T18:12:47.917Z,3.23
2019-04-07T18:15:38.310Z,2.10
2019-04-07T18:22:22.026Z,2.63
2019-04-07T18:25:10.548Z,2.47
2019-04-07T18:28:03.004Z,2.30
2019-04-07T18:30:54.283Z,2.57
2019-04-07T18:33:41.388Z,2.30
2019-04-07T18:36:36.009Z,3.53
2019-04-07T18:39:36.375Z,2.00
2019-04-07T18:42:27.273Z,2.30
2019-04-07T18:45:23.152Z,3.23
2019-04-07T18:48:08.034Z,4.80
2019-04-07T18:51:13.211Z,7.33
2019-04-07T18:54:34.174Z,5.83
2019-04-07T18:57:24.982Z,2.70
2019-04-07T19:00:24.521Z,3.90
2019-04-07T19:03:04.514Z,3.57
2019-04-07T19:06:12.764Z,3.70
2019-04-07T19:09:04.917Z,2.80
2019-04-07T19:12:18.899Z,2.00
2019-04-07T19:15:09.196Z,6.00
2019-04-07T19:18:00.574Z,3.20
2019-04-07T19:20:56.280Z,3.40
2019-04-07T19:23:47.744Z,3.67
2019-04-07T19:26:44.299Z,2.70
2019-04-07T19:29:28.263Z,3.17
2019-04-07T19:32:19.916Z,4.70
2019-04-07T19:35:05.735Z,3.33
2019-04-07T19:38:17.114Z,2.00
2019-04-07T19:41:02.924Z,3.10
2019-04-07T19:44:06.015Z,2.33
2019-04-07T19:46:59.683Z,2.70
2019-04-07T19:49:55.443Z,3.20
2019-04-07T19:52:44.242Z,3.27
2019-04-07T19:55:32.578Z,2.33
2019-04-07T19:58:37.300Z,2.83
2019-04-07T20:01:29.193Z,2.47
2019-04-07T20:04:24.903Z,3.10
2019-04-07T20:07:11.537Z,2.63
2019-04-07T20:09:59.783Z,3.20
2019-04-07T20:12:42.501Z,2.40
2019-04-07T20:15:30.610Z,4.43
2019-04-07T20:18:25.552Z,2.93
2019-04-07T20:21:18.484Z,2.57
2019-04-07T20:24:09.216Z,2.97
2019-04-07T20:26:58.845Z,2.47
2019-04-07T20:29:43.373Z,2.90
2019-04-07T20:32:44.876Z,8.67
2019-04-07T20:35:20.986Z,3.50
2019-04-07T20:38:51.176Z,2.43
2019-04-07T20:41:21.710Z,4.27
2019-04-07T20:44:01.180Z,3.13
2019-04-07T20:46:53.664Z,4.60
2019-04-07T20:50:18.272Z,3.00
2019-04-07T20:53:22.850Z,2.90
2019-04-07T20:56:14.661Z,2.93
2019-04-07T20:59:29.453Z,6.10
2019-04-07T21:02:33.737Z,3.10
2019-04-07T21:05:24.715Z,5.33
2019-04-07T21:08:22.975Z,2.77
2019-04-07T21:11:08.079Z,3.70
2019-04-07T21:13:54.921Z,5.10
2019-04-07T21:17:03.813Z,3.80
2019-04-07T21:19:47.336Z,3.67
2019-04-07T21:22:31.434Z,3.03
2019-04-07T21:25:24.848Z,4.63
2019-04-07T21:28:05.145Z,3.23
2019-04-07T21:30:46.237Z,3.77
2019-04-07T21:33:45.404Z,2.17
2019-04-07T21:36:28.047Z,2.60
2019-04-07T21:39:30.563Z,2.60
2019-04-07T21:42:20.973Z,2.70
2019-04-07T21:45:28.507Z,3.97
2019-04-07T21:48:28.593Z,2.90
2019-04-07T21:51:19.488Z,4.33
2019-04-07T21:54:14.001Z,3.90
2019-04-07T21:57:05.744Z,2.97
2019-04-07T21:59:59.517Z,4.37
2019-04-07T22:02:45.617Z,3.13
2019-04-07T22:05:33.352Z,3.33
2019-04-07T22:08:16.965Z,2.77
2019-04-07T22:10:43.248Z,4.10
2019-04-07T22:13:14.225Z,5.83
2019-04-07T22:15:55.577Z,6.73
2019-04-07T22:18:39.475Z,3.87
2019-04-07T22:21:17.056Z,4.40
2019-04-07T22:23:54.132Z,4.80
2019-04-07T22:26:28.246Z,6.73
2019-04-07T22:29:04.021Z,4.60
2019-04-07T22:31:45.612Z,5.83
2019-04-07T22:34:15.066Z,3.20
2019-04-07T22:36:47.029Z,4.00
2019-04-07T22:39:14.239Z,3.70
2019-04-07T22:41:44.247Z,5.23
2019-04-07T22:44:13.360Z,4.80
2019-04-07T22:46:42.204Z,5.03
2019-04-07T22:49:11.416Z,5.30
2019-04-07T22:51:43.096Z,5.00
2019-04-07T22:54:10.571Z,4.80
2019-04-07T22:56:39.926Z,4.97
2019-04-07T22:59:10.507Z,4.53
2019-04-07T23:01:40.787Z,7.30
2019-04-07T23:04:09.719Z,4.20
2019-04-07T23:06:38.418Z,5.00
2019-04-07T23:09:08.140Z,4.83
2019-04-07T23:11:37.615Z,5.50
2019-04-07T23:14:07.291Z,6.73
2019-04-07T23:16:36.037Z,8.07
2019-04-07T23:19:04.743Z,9.90
2019-04-07T23:21:34.083Z,13.13
2019-04-07T23:24:03.443Z,13.73
2019-04-07T23:26:32.221Z,15.07
2019-04-07T23:29:00.854Z,13.23
2019-04-07T23:31:32.026Z,12.23
2019-04-07T23:34:00.750Z,14.60
2019-04-07T23:36:29.348Z,15.47
2019-04-07T23:38:58.148Z,17.27
2019-04-07T23:41:27.738Z,17.23
2019-04-07T23:43:56.798Z,18.53
2019-04-07T23:46:27.220Z,18.13
2019-04-07T23:48:56.040Z,17.93
2019-04-07T23:51:24.672Z,16.30
2019-04-07T23:54:10.891Z,17.30
2019-04-07T23:56:41.975Z,20.00
2019-04-07T23:59:10.885Z,20.57
